Weather at Basin Harbor Airport

Public forecast

Using degrees Fahrenheit for public forecast. Weather courtesy of forecast.io.

Closest aviation weather report (METAR) to Basin Harbor Airport

Closest report is Burlington International Airport, 18.6 nm (34.4 km) NNE. Retrieved 2020/09/21 23:54 UTC (1 hour ago):

KBTV 212354Z 00000KT 10SM CLR 10/02 A3045 RMK AO2 SLP315 T01000017 10178 20100 56009

Closest aviation forecast (TAF) to Basin Harbor Airport

Closest forecast is Burlington International Airport, 18.6 nm (34.4 km) NNE. Retrieved 2020-09-22 00:28 UTC (28 minutes ago):

TAF KBTV 212326Z 2200/2224 00000KT P6SM SKC FM221800 35010KT P6SM SKC